createdAt,value
2018-10-21T00:00:23.571Z,33.10
2018-10-21T00:00:58.700Z,32.30
2018-10-21T00:01:34.022Z,31.50
2018-10-21T00:02:09.623Z,33.90
2018-10-21T00:02:45.051Z,31.50
2018-10-21T00:03:20.492Z,31.90
2018-10-21T00:03:55.753Z,31.60
2018-10-21T00:04:30.963Z,32.70
2018-10-21T00:05:06.273Z,35.40
2018-10-21T00:05:42.014Z,33.10
2018-10-21T00:06:17.562Z,30.20
2018-10-21T00:06:52.817Z,31.10
2018-10-21T00:07:28.182Z,33.20
2018-10-21T00:08:03.634Z,30.70
2018-10-21T00:08:39.045Z,30.80
2018-10-21T00:09:14.741Z,34.00
2018-10-21T00:09:50.069Z,37.20
2018-10-21T00:10:25.559Z,36.50
2018-10-21T00:11:01.035Z,32.90
2018-10-21T00:11:36.346Z,30.20
2018-10-21T00:12:11.729Z,31.30
2018-10-21T00:12:47.187Z,29.60
2018-10-21T00:13:22.333Z,32.70
2018-10-21T00:13:57.883Z,36.60
2018-10-21T00:14:33.354Z,33.00
2018-10-21T00:15:08.543Z,31.70
2018-10-21T00:15:43.725Z,35.40
2018-10-21T00:16:19.076Z,32.80
2018-10-21T00:16:54.539Z,33.50
2018-10-21T00:17:29.957Z,35.00
2018-10-21T00:18:05.791Z,32.20
2018-10-21T00:18:41.230Z,33.50
2018-10-21T00:19:16.799Z,33.50
2018-10-21T00:19:52.406Z,32.30
2018-10-21T00:20:27.914Z,37.30
2018-10-21T00:21:03.388Z,37.70
2018-10-21T00:21:39.023Z,37.10
2018-10-21T00:22:14.383Z,43.70
2018-10-21T00:22:49.927Z,43.60
2018-10-21T00:23:25.290Z,38.00
2018-10-21T00:24:00.560Z,41.10
2018-10-21T00:24:35.861Z,42.30
2018-10-21T00:25:11.210Z,44.90
2018-10-21T00:25:46.960Z,39.90
2018-10-21T00:26:22.181Z,38.40
2018-10-21T00:26:57.818Z,41.30
2018-10-21T00:27:33.087Z,43.60
2018-10-21T00:28:08.453Z,42.30
2018-10-21T00:28:44.082Z,44.70
2018-10-21T00:29:19.336Z,44.70
2018-10-21T00:29:54.410Z,41.20
2018-10-21T00:30:29.754Z,45.50
2018-10-21T00:31:05.447Z,44.80
2018-10-21T00:31:41.196Z,42.70
2018-10-21T00:32:16.820Z,48.70
2018-10-21T00:32:52.144Z,48.70
2018-10-21T00:33:27.710Z,45.80
2018-10-21T00:34:03.345Z,46.50
2018-10-21T00:34:38.778Z,50.00
2018-10-21T00:35:14.158Z,46.90
2018-10-21T00:35:49.683Z,40.20
2018-10-21T00:36:24.963Z,46.30
2018-10-21T00:37:00.226Z,50.10
2018-10-21T00:37:35.658Z,52.20
2018-10-21T00:38:11.109Z,47.90
2018-10-21T00:38:46.644Z,43.70
2018-10-21T00:39:21.792Z,42.60
2018-10-21T00:39:56.905Z,42.60
2018-10-21T00:40:32.282Z,44.90
2018-10-21T00:41:07.678Z,48.20
2018-10-21T00:41:42.823Z,43.10
2018-10-21T00:42:18.273Z,40.70
2018-10-21T00:42:53.700Z,44.30
2018-10-21T00:43:29.061Z,44.10
2018-10-21T00:44:04.443Z,46.70
2018-10-21T00:44:39.662Z,47.00
2018-10-21T00:45:15.238Z,41.80
2018-10-21T00:45:50.929Z,40.30
2018-10-21T00:46:26.585Z,46.30
2018-10-21T00:47:02.100Z,49.80
2018-10-21T00:47:37.653Z,50.60
2018-10-21T00:48:12.936Z,51.10
2018-10-21T00:48:48.172Z,48.50
2018-10-21T00:49:23.267Z,52.40
2018-10-21T00:49:58.670Z,53.30
2018-10-21T00:50:33.920Z,44.40
2018-10-21T00:51:09.624Z,45.70
2018-10-21T00:51:44.932Z,43.00
2018-10-21T00:52:20.277Z,41.20
2018-10-21T00:52:55.923Z,49.70
2018-10-21T00:53:31.282Z,48.70
2018-10-21T00:54:06.677Z,46.00
2018-10-21T00:54:42.005Z,44.50
2018-10-21T00:55:17.435Z,42.10
2018-10-21T00:55:52.875Z,45.00
2018-10-21T00:56:28.415Z,48.00
2018-10-21T00:57:03.944Z,45.60
2018-10-21T00:57:39.603Z,44.30
2018-10-21T00:58:14.931Z,44.50
2018-10-21T00:58:50.251Z,47.20
2018-10-21T00:59:25.602Z,49.40
2018-10-21T01:00:00.926Z,43.60
2018-10-21T01:00:36.675Z,43.90
2018-10-21T01:01:12.118Z,43.50
2018-10-21T01:01:47.452Z,40.10
2018-10-21T01:02:23.037Z,43.20
2018-10-21T01:02:58.579Z,45.30
2018-10-21T01:03:33.939Z,43.60
2018-10-21T01:04:09.181Z,41.90
2018-10-21T01:04:44.756Z,36.70
2018-10-21T01:05:19.807Z,42.30
2018-10-21T01:05:55.259Z,44.00
2018-10-21T01:06:30.920Z,47.70
2018-10-21T01:07:06.334Z,41.00
2018-10-21T01:07:41.936Z,40.20
2018-10-21T01:08:17.125Z,39.80
2018-10-21T01:08:52.523Z,40.40
2018-10-21T01:09:28.061Z,41.70
2018-10-21T01:10:03.278Z,41.40
2018-10-21T01:10:38.716Z,40.50
2018-10-21T01:11:14.085Z,36.70
2018-10-21T01:11:49.621Z,41.20
2018-10-21T01:12:25.209Z,41.00
2018-10-21T01:13:00.871Z,44.60
2018-10-21T01:13:36.304Z,44.90
2018-10-21T01:14:11.761Z,43.50
2018-10-21T01:14:47.137Z,48.20
2018-10-21T01:15:22.433Z,43.00
2018-10-21T01:15:57.782Z,44.20
2018-10-21T01:16:33.272Z,41.90
2018-10-21T01:17:08.389Z,41.80
2018-10-21T01:17:43.631Z,41.90
2018-10-21T01:18:18.811Z,39.50
2018-10-21T01:18:54.230Z,41.40
2018-10-21T01:19:29.564Z,41.60
2018-10-21T01:20:04.860Z,39.50
2018-10-21T01:20:40.346Z,40.30
2018-10-21T01:21:15.876Z,41.20
2018-10-21T01:21:51.017Z,39.30
2018-10-21T01:22:26.181Z,39.50
2018-10-21T01:23:01.380Z,38.00
2018-10-21T01:23:36.934Z,42.20
2018-10-21T01:24:12.698Z,44.10
2018-10-21T01:24:48.052Z,40.50
2018-10-21T01:25:23.318Z,42.10
2018-10-21T01:25:58.692Z,40.90
2018-10-21T01:26:34.153Z,43.30
2018-10-21T01:27:09.450Z,38.90
2018-10-21T01:27:44.825Z,34.60
2018-10-21T01:28:20.286Z,38.50
2018-10-21T01:28:55.515Z,37.50
2018-10-21T01:29:31.014Z,40.80
2018-10-21T01:30:06.431Z,40.90
2018-10-21T01:30:41.779Z,38.50
2018-10-21T01:31:16.822Z,43.40
2018-10-21T01:31:52.143Z,37.00
2018-10-21T01:32:27.595Z,40.00
2018-10-21T01:33:02.930Z,43.70
2018-10-21T01:33:38.494Z,41.70
2018-10-21T01:34:14.041Z,38.20
2018-10-21T01:34:49.246Z,43.20
2018-10-21T01:35:24.617Z,48.70
2018-10-21T01:35:59.821Z,45.10
2018-10-21T01:36:35.266Z,39.50
2018-10-21T01:37:10.704Z,40.10
2018-10-21T01:37:46.215Z,39.60
2018-10-21T01:38:22.047Z,41.80
2018-10-21T01:38:57.319Z,44.10
2018-10-21T01:39:32.789Z,38.00
2018-10-21T01:40:08.090Z,38.30
2018-10-21T01:40:43.628Z,37.70
2018-10-21T01:41:18.739Z,37.70
2018-10-21T01:41:54.325Z,41.90
2018-10-21T01:42:29.675Z,35.70
2018-10-21T01:43:04.803Z,39.00
2018-10-21T01:43:40.037Z,36.10
2018-10-21T01:44:15.473Z,35.70
2018-10-21T01:44:50.863Z,40.60
2018-10-21T01:45:26.042Z,42.30
2018-10-21T01:46:01.376Z,36.70
2018-10-21T01:46:36.525Z,36.20
2018-10-21T01:47:11.874Z,44.60
2018-10-21T01:47:47.206Z,45.90
2018-10-21T01:48:23.148Z,46.50
2018-10-21T01:48:58.384Z,39.40
2018-10-21T01:49:33.639Z,42.00
2018-10-21T01:50:09.022Z,46.40
2018-10-21T01:50:44.479Z,43.80
2018-10-21T01:51:19.934Z,41.20
2018-10-21T01:51:55.476Z,39.20
2018-10-21T01:52:30.925Z,42.10
2018-10-21T01:53:06.375Z,46.40
2018-10-21T01:53:41.933Z,41.20
2018-10-21T01:54:17.269Z,39.90
2018-10-21T01:54:53.008Z,45.50
2018-10-21T01:55:28.408Z,41.20
2018-10-21T01:56:03.819Z,36.80
2018-10-21T01:56:39.096Z,46.60
2018-10-21T01:57:14.529Z,49.80
2018-10-21T01:57:50.233Z,40.90
2018-10-21T01:58:25.475Z,39.50
2018-10-21T01:59:00.722Z,43.40
2018-10-21T01:59:36.182Z,42.20
2018-10-21T02:00:11.548Z,43.20
2018-10-21T02:00:47.605Z,45.80
2018-10-21T02:01:23.154Z,43.30
2018-10-21T02:01:58.481Z,46.30
2018-10-21T02:02:33.757Z,43.70
2018-10-21T02:03:09.142Z,41.20
2018-10-21T02:03:44.442Z,43.10
2018-10-21T02:04:20.141Z,40.20
2018-10-21T02:04:55.369Z,44.90
2018-10-21T02:05:30.920Z,49.80
2018-10-21T02:06:06.251Z,47.90
2018-10-21T02:06:41.520Z,44.00
2018-10-21T02:07:16.862Z,41.60
2018-10-21T02:07:52.089Z,42.40
2018-10-21T02:08:27.464Z,42.00
2018-10-21T02:09:02.854Z,42.00
2018-10-21T02:09:37.946Z,41.90
2018-10-21T02:10:13.079Z,45.50
2018-10-21T02:10:48.748Z,47.00
2018-10-21T02:11:24.116Z,47.70
2018-10-21T02:11:59.559Z,42.80
2018-10-21T02:12:34.912Z,44.00
2018-10-21T02:13:10.573Z,47.00
2018-10-21T02:13:45.705Z,49.10
2018-10-21T02:14:21.195Z,44.40
2018-10-21T02:14:56.667Z,45.00
2018-10-21T02:15:31.921Z,40.30
2018-10-21T02:16:07.495Z,45.70
2018-10-21T02:16:42.682Z,46.10
2018-10-21T02:17:18.022Z,44.60
2018-10-21T02:17:53.638Z,46.30
2018-10-21T02:18:29.001Z,47.10
2018-10-21T02:19:04.202Z,45.70
2018-10-21T02:19:39.440Z,41.30
2018-10-21T02:20:14.683Z,42.00
2018-10-21T02:20:50.001Z,41.70
2018-10-21T02:21:25.465Z,42.60
2018-10-21T02:22:00.896Z,46.40
2018-10-21T02:22:36.327Z,45.30
2018-10-21T02:23:11.733Z,44.90
2018-10-21T02:23:46.976Z,42.90
2018-10-21T02:24:22.153Z,39.70
2018-10-21T02:24:57.475Z,41.90
2018-10-21T02:25:32.970Z,42.60
2018-10-21T02:26:08.236Z,39.90
2018-10-21T02:26:44.015Z,42.80
2018-10-21T02:27:19.318Z,47.40
2018-10-21T02:27:54.710Z,50.90
2018-10-21T02:28:30.170Z,45.40
2018-10-21T02:29:05.584Z,44.20
2018-10-21T02:29:40.967Z,51.00
2018-10-21T02:30:16.305Z,53.80
2018-10-21T02:30:52.033Z,48.30
2018-10-21T02:31:27.441Z,44.20
2018-10-21T02:32:02.737Z,47.70
2018-10-21T02:32:38.016Z,49.80
2018-10-21T02:33:13.705Z,51.90
2018-10-21T02:33:49.017Z,51.40
2018-10-21T02:34:24.353Z,48.20
2018-10-21T02:34:59.649Z,46.10
2018-10-21T02:35:35.210Z,44.60
2018-10-21T02:36:10.637Z,45.30
2018-10-21T02:36:45.824Z,49.90
2018-10-21T02:37:21.014Z,53.20
2018-10-21T02:37:56.324Z,48.60
2018-10-21T02:38:31.987Z,43.70
2018-10-21T02:39:07.396Z,41.60
2018-10-21T02:39:42.799Z,47.10
2018-10-21T02:40:18.276Z,46.40
2018-10-21T02:40:53.596Z,45.10
2018-10-21T02:41:29.066Z,41.70
2018-10-21T02:42:04.473Z,58.10
2018-10-21T02:42:39.691Z,62.80
2018-10-21T02:43:15.263Z,52.80
2018-10-21T02:43:50.602Z,46.60
2018-10-21T02:44:25.837Z,47.20
2018-10-21T02:45:01.166Z,48.20
2018-10-21T02:45:36.612Z,47.40
2018-10-21T02:46:12.063Z,44.80
2018-10-21T02:46:47.706Z,45.10
2018-10-21T02:47:23.436Z,42.20
2018-10-21T02:47:59.019Z,43.60
2018-10-21T02:48:34.370Z,46.20
2018-10-21T02:49:09.615Z,49.60
2018-10-21T02:49:44.970Z,44.70
2018-10-21T02:50:20.489Z,45.90
2018-10-21T02:50:56.298Z,43.20
2018-10-21T02:51:31.451Z,41.30
2018-10-21T02:52:06.990Z,40.30
2018-10-21T02:52:42.447Z,41.90
2018-10-21T02:53:18.331Z,44.60
2018-10-21T02:53:53.657Z,46.20
2018-10-21T02:54:28.900Z,44.10
2018-10-21T02:55:04.242Z,46.50
2018-10-21T02:55:39.591Z,45.40
2018-10-21T02:56:14.994Z,44.80
2018-10-21T02:56:50.320Z,42.20
2018-10-21T02:57:25.761Z,46.30
2018-10-21T02:58:01.107Z,47.20
2018-10-21T02:58:36.564Z,47.60
2018-10-21T02:59:12.002Z,46.60
2018-10-21T02:59:47.460Z,46.10
2018-10-21T03:00:22.937Z,44.20
2018-10-21T03:00:58.204Z,49.60
2018-10-21T03:01:33.354Z,55.20
2018-10-21T03:02:08.694Z,44.10
2018-10-21T03:02:44.053Z,44.50
2018-10-21T03:03:19.458Z,55.00
2018-10-21T03:03:55.194Z,54.40
2018-10-21T03:04:30.727Z,49.60
2018-10-21T03:05:06.287Z,49.10
2018-10-21T03:05:41.700Z,42.80
2018-10-21T03:06:17.121Z,46.90
2018-10-21T03:06:52.558Z,49.50
2018-10-21T03:07:28.201Z,50.10
2018-10-21T03:08:03.642Z,47.40
2018-10-21T03:08:38.914Z,50.30
2018-10-21T03:09:14.486Z,45.70
2018-10-21T03:09:50.162Z,45.40
2018-10-21T03:10:25.422Z,45.50
2018-10-21T03:11:01.015Z,44.00
2018-10-21T03:11:36.368Z,46.20
2018-10-21T03:12:11.798Z,47.80
2018-10-21T03:12:47.150Z,45.60
2018-10-21T03:13:22.361Z,45.90
2018-10-21T03:13:57.878Z,49.00
2018-10-21T03:14:33.330Z,46.90
2018-10-21T03:15:09.153Z,46.00
2018-10-21T03:15:44.549Z,47.90
2018-10-21T03:16:20.007Z,50.80
2018-10-21T03:16:55.964Z,49.20
2018-10-21T03:17:31.514Z,50.80
2018-10-21T03:18:07.025Z,51.20
2018-10-21T03:18:42.800Z,50.70
2018-10-21T03:19:18.238Z,48.70
2018-10-21T03:19:53.835Z,45.30
2018-10-21T03:20:29.191Z,46.90
2018-10-21T03:21:04.714Z,49.30
2018-10-21T03:21:40.431Z,51.10
2018-10-21T03:22:16.166Z,50.90
2018-10-21T03:22:51.813Z,42.20
2018-10-21T03:23:27.326Z,44.10
2018-10-21T03:24:02.629Z,49.70
2018-10-21T03:24:38.214Z,51.90
2018-10-21T03:25:13.611Z,51.30
2018-10-21T03:25:49.062Z,56.90
2018-10-21T03:26:24.421Z,52.10
2018-10-21T03:26:59.841Z,46.30
2018-10-21T03:27:35.306Z,44.20
2018-10-21T03:28:10.648Z,46.70
2018-10-21T03:28:46.001Z,48.80
2018-10-21T03:29:21.410Z,48.80
2018-10-21T03:29:56.870Z,53.80
2018-10-21T03:30:32.021Z,52.70
2018-10-21T03:31:07.558Z,42.40
2018-10-21T03:31:42.938Z,50.10
2018-10-21T03:32:18.671Z,50.70
2018-10-21T03:32:54.080Z,45.80
2018-10-21T03:33:29.364Z,43.70
2018-10-21T03:34:04.563Z,49.90
2018-10-21T03:34:40.008Z,51.10
2018-10-21T03:35:15.182Z,44.60
2018-10-21T03:35:50.746Z,47.90
2018-10-21T03:36:25.983Z,47.00
2018-10-21T03:37:01.414Z,46.20
2018-10-21T03:37:36.610Z,42.80
2018-10-21T03:38:11.865Z,46.40
2018-10-21T03:38:47.322Z,55.00
2018-10-21T03:39:23.126Z,48.10
2018-10-21T03:39:58.458Z,43.10
2018-10-21T03:40:34.278Z,48.40
2018-10-21T03:41:09.690Z,55.00
2018-10-21T03:41:45.265Z,47.70
2018-10-21T03:42:20.807Z,42.50
2018-10-21T03:42:56.463Z,43.50
2018-10-21T03:43:32.104Z,46.60
2018-10-21T03:44:07.893Z,49.50
2018-10-21T03:44:43.057Z,49.20
2018-10-21T03:45:18.636Z,50.10
2018-10-21T03:45:53.958Z,44.80
2018-10-21T03:46:29.189Z,41.50
2018-10-21T03:47:04.524Z,44.20
2018-10-21T03:47:39.896Z,43.80
2018-10-21T03:48:15.098Z,42.40
2018-10-21T03:48:50.337Z,45.20
2018-10-21T03:49:25.745Z,50.40
2018-10-21T03:50:00.869Z,44.80
2018-10-21T03:50:36.212Z,45.30
2018-10-21T03:51:11.794Z,48.10
2018-10-21T03:51:47.559Z,50.10
2018-10-21T03:52:22.802Z,45.60
2018-10-21T03:52:58.232Z,45.10
2018-10-21T03:53:33.530Z,43.50
2018-10-21T03:54:09.095Z,40.10
2018-10-21T03:54:45.257Z,43.60
2018-10-21T03:55:20.812Z,44.70
2018-10-21T03:55:56.501Z,44.40
2018-10-21T03:56:31.824Z,45.00
2018-10-21T03:57:07.187Z,40.30
2018-10-21T03:57:42.243Z,39.00
2018-10-21T03:58:17.578Z,41.90
2018-10-21T03:58:52.726Z,41.30
2018-10-21T03:59:28.351Z,45.00
2018-10-21T04:00:03.799Z,47.60
2018-10-21T04:00:39.207Z,48.10
2018-10-21T04:01:14.454Z,44.50
2018-10-21T04:01:49.902Z,44.30
2018-10-21T04:02:25.311Z,40.90
2018-10-21T04:03:00.749Z,44.90
2018-10-21T04:03:36.208Z,45.20
2018-10-21T04:04:11.611Z,44.20
2018-10-21T04:04:47.239Z,47.50
2018-10-21T04:05:22.561Z,46.90
2018-10-21T04:05:57.883Z,47.00
2018-10-21T04:06:33.451Z,42.60
2018-10-21T04:07:08.910Z,40.30
2018-10-21T04:07:44.237Z,44.90
2018-10-21T04:08:19.555Z,49.50
2018-10-21T04:08:54.698Z,53.60
2018-10-21T04:09:29.916Z,48.30
2018-10-21T04:10:05.085Z,44.60
2018-10-21T04:10:40.822Z,48.40
2018-10-21T04:11:15.963Z,52.40
2018-10-21T04:11:51.251Z,45.90
2018-10-21T04:12:26.607Z,48.50
2018-10-21T04:13:02.048Z,48.90
2018-10-21T04:13:37.373Z,50.10
2018-10-21T04:14:12.712Z,47.40
2018-10-21T04:14:48.330Z,51.60
2018-10-21T04:15:23.971Z,54.60
2018-10-21T04:15:59.555Z,51.30
2018-10-21T04:16:34.987Z,50.20
2018-10-21T04:17:10.392Z,45.30
2018-10-21T04:17:45.954Z,44.00
2018-10-21T04:18:21.581Z,46.00
2018-10-21T04:18:57.066Z,49.50
2018-10-21T04:19:32.420Z,46.30
2018-10-21T04:20:07.898Z,41.70
2018-10-21T04:20:43.240Z,43.80
2018-10-21T04:21:18.697Z,45.10
2018-10-21T04:21:53.991Z,46.50
2018-10-21T04:22:29.334Z,44.90
2018-10-21T04:23:04.908Z,43.00
2018-10-21T04:23:40.205Z,45.20
2018-10-21T04:24:15.609Z,45.20
2018-10-21T04:24:50.796Z,46.50
2018-10-21T04:25:26.159Z,44.80
2018-10-21T04:26:01.515Z,41.70
2018-10-21T04:26:36.653Z,44.70
2018-10-21T04:27:12.223Z,45.90
2018-10-21T04:27:47.391Z,44.80
2018-10-21T04:28:22.804Z,47.20
2018-10-21T04:28:58.460Z,44.60
2018-10-21T04:29:33.895Z,39.60
2018-10-21T04:30:09.176Z,37.10
2018-10-21T04:30:44.641Z,42.60
2018-10-21T04:31:19.974Z,42.40
2018-10-21T04:31:55.245Z,41.40
2018-10-21T04:32:30.586Z,44.80
2018-10-21T04:33:06.095Z,43.50
2018-10-21T04:33:41.515Z,39.00
2018-10-21T04:34:16.941Z,40.50
2018-10-21T04:34:52.206Z,40.20
2018-10-21T04:35:27.838Z,39.20
2018-10-21T04:36:03.274Z,41.00
2018-10-21T04:36:39.522Z,40.90
2018-10-21T04:37:14.923Z,37.40
2018-10-21T04:37:50.275Z,38.50
2018-10-21T04:38:25.942Z,42.00
2018-10-21T04:39:01.322Z,41.40
2018-10-21T04:39:36.666Z,39.50
2018-10-21T04:40:12.270Z,40.30
2018-10-21T04:40:47.725Z,37.30
2018-10-21T04:41:23.241Z,41.50
2018-10-21T04:41:58.497Z,44.80
2018-10-21T04:42:33.532Z,44.00
2018-10-21T04:43:08.819Z,49.50
2018-10-21T04:43:44.264Z,43.40
2018-10-21T04:44:19.802Z,38.40
2018-10-21T04:44:55.459Z,39.30
2018-10-21T04:45:31.082Z,46.00
2018-10-21T04:46:06.711Z,43.10
2018-10-21T04:46:42.235Z,38.90
2018-10-21T04:47:17.632Z,41.50
2018-10-21T04:47:53.313Z,38.60
2018-10-21T04:48:28.428Z,39.80
2018-10-21T04:49:03.906Z,45.60
2018-10-21T04:49:39.220Z,46.80
2018-10-21T04:50:14.568Z,43.80
2018-10-21T04:50:50.214Z,42.40
2018-10-21T04:51:25.652Z,36.10
2018-10-21T04:52:01.192Z,37.00
2018-10-21T04:52:36.610Z,45.20
2018-10-21T04:53:12.284Z,40.50
2018-10-21T04:53:47.713Z,38.70
2018-10-21T04:54:23.004Z,40.20
2018-10-21T04:54:58.285Z,39.40
2018-10-21T04:55:33.699Z,37.60
2018-10-21T04:56:09.236Z,39.90
2018-10-21T04:56:44.858Z,45.70
2018-10-21T04:57:20.264Z,41.10
2018-10-21T04:57:55.806Z,39.10
2018-10-21T04:58:31.225Z,37.00
2018-10-21T04:59:06.462Z,36.80
2018-10-21T04:59:41.787Z,44.00
2018-10-21T05:00:17.206Z,43.70
2018-10-21T05:00:52.630Z,42.40
2018-10-21T05:01:27.873Z,37.70
2018-10-21T05:02:03.518Z,39.70
2018-10-21T05:02:38.771Z,43.50
2018-10-21T05:03:14.616Z,41.20
2018-10-21T05:03:49.950Z,42.80
2018-10-21T05:04:25.285Z,41.00
2018-10-21T05:05:00.434Z,36.90
2018-10-21T05:05:35.894Z,43.70
2018-10-21T05:06:11.264Z,48.90
2018-10-21T05:06:46.813Z,42.50
2018-10-21T05:07:22.310Z,40.40
2018-10-21T05:07:57.644Z,35.10
2018-10-21T05:08:32.841Z,35.40
2018-10-21T05:09:08.225Z,38.80
2018-10-21T05:09:43.552Z,39.80
2018-10-21T05:10:19.194Z,40.60
2018-10-21T05:10:54.545Z,37.10
2018-10-21T05:11:29.950Z,37.20
2018-10-21T05:12:05.308Z,37.90
2018-10-21T05:12:40.641Z,44.80
2018-10-21T05:13:16.023Z,42.80
2018-10-21T05:13:51.235Z,42.20
2018-10-21T05:14:26.536Z,41.10
2018-10-21T05:15:01.892Z,41.00
2018-10-21T05:15:36.917Z,41.00
2018-10-21T05:16:12.273Z,40.20
2018-10-21T05:16:47.601Z,38.60
2018-10-21T05:17:23.276Z,36.50
2018-10-21T05:17:58.631Z,35.30
2018-10-21T05:18:34.057Z,40.90
2018-10-21T05:19:09.633Z,42.10
2018-10-21T05:19:45.079Z,41.40
2018-10-21T05:20:20.444Z,42.70
2018-10-21T05:20:56.013Z,43.00
2018-10-21T05:21:31.348Z,36.50
2018-10-21T05:22:07.112Z,38.80
2018-10-21T05:22:42.470Z,41.10
2018-10-21T05:23:17.733Z,36.50
2018-10-21T05:23:53.383Z,35.60
2018-10-21T05:24:28.839Z,40.40
2018-10-21T05:25:04.212Z,41.40
2018-10-21T05:25:39.415Z,44.80
2018-10-21T05:26:15.273Z,51.10
2018-10-21T05:26:50.876Z,44.90
2018-10-21T05:27:26.097Z,38.30
2018-10-21T05:28:01.603Z,44.90
2018-10-21T05:28:37.309Z,41.70
2018-10-21T05:29:12.668Z,41.00
2018-10-21T05:29:48.098Z,40.30
2018-10-21T05:30:23.351Z,44.90
2018-10-21T05:30:58.805Z,40.40
2018-10-21T05:31:34.162Z,36.80
2018-10-21T05:32:09.310Z,39.20
2018-10-21T05:32:44.766Z,43.10
2018-10-21T05:33:20.219Z,43.20
2018-10-21T05:33:55.822Z,49.00
2018-10-21T05:34:31.301Z,50.10
2018-10-21T05:35:06.860Z,44.80
2018-10-21T05:35:42.118Z,41.80
2018-10-21T05:36:17.663Z,37.60
2018-10-21T05:36:52.696Z,44.10
2018-10-21T05:37:28.008Z,45.30
2018-10-21T05:38:03.575Z,41.10
2018-10-21T05:38:38.768Z,43.40
2018-10-21T05:39:14.094Z,41.60
2018-10-21T05:39:49.438Z,42.50
2018-10-21T05:40:24.922Z,45.00
2018-10-21T05:41:00.135Z,43.50
2018-10-21T05:41:35.590Z,42.60
2018-10-21T05:42:11.028Z,44.60
2018-10-21T05:42:46.573Z,56.90
2018-10-21T05:43:22.115Z,48.30
2018-10-21T05:43:57.529Z,43.80
2018-10-21T05:44:33.072Z,48.50
2018-10-21T05:45:08.615Z,52.60
2018-10-21T05:45:44.168Z,56.20
2018-10-21T05:46:19.766Z,52.10
2018-10-21T05:46:55.221Z,50.80
2018-10-21T05:47:30.716Z,48.30
2018-10-21T05:48:06.067Z,46.00
2018-10-21T05:48:41.377Z,42.30
2018-10-21T05:49:16.717Z,43.30
2018-10-21T05:49:51.949Z,42.10
2018-10-21T05:50:27.311Z,44.40
2018-10-21T05:51:02.837Z,44.00
2018-10-21T05:51:38.619Z,43.70
2018-10-21T05:52:14.105Z,44.00
2018-10-21T05:52:49.457Z,39.60
2018-10-21T05:53:24.708Z,41.50
2018-10-21T05:54:00.326Z,50.40
2018-10-21T05:54:36.082Z,51.60
2018-10-21T05:55:11.422Z,45.20
2018-10-21T05:55:47.331Z,51.20
2018-10-21T05:56:22.776Z,53.60
2018-10-21T05:56:57.992Z,45.00
2018-10-21T05:57:33.500Z,46.50
2018-10-21T05:58:09.110Z,44.40
2018-10-21T05:58:44.714Z,44.40
2018-10-21T05:59:20.152Z,51.20
2018-10-21T05:59:55.376Z,49.10
2018-10-21T06:00:30.630Z,46.30
2018-10-21T06:01:06.082Z,49.60
2018-10-21T06:01:41.866Z,51.40
2018-10-21T06:02:17.516Z,46.60
2018-10-21T06:02:52.945Z,43.20
2018-10-21T06:03:28.232Z,42.30
2018-10-21T06:04:04.030Z,46.70
2018-10-21T06:04:39.519Z,48.10
2018-10-21T06:05:15.295Z,47.40
2018-10-21T06:05:50.908Z,46.60
2018-10-21T06:06:26.174Z,45.30
2018-10-21T06:07:02.855Z,44.70
2018-10-21T06:07:38.042Z,45.60
2018-10-21T06:08:13.527Z,44.70
2018-10-21T06:08:48.770Z,43.60
2018-10-21T06:09:24.300Z,41.90
2018-10-21T06:09:59.727Z,44.90
2018-10-21T06:10:36.180Z,48.90
2018-10-21T06:11:11.335Z,47.60
2018-10-21T06:11:46.641Z,48.30
2018-10-21T06:12:21.814Z,52.00
2018-10-21T06:12:57.035Z,50.30
2018-10-21T06:13:32.369Z,46.50
2018-10-21T06:14:07.604Z,53.50
2018-10-21T06:14:42.761Z,48.40
2018-10-21T06:15:18.029Z,38.30
2018-10-21T06:15:53.454Z,44.90
2018-10-21T06:16:30.104Z,44.20
2018-10-21T06:17:05.632Z,46.90
2018-10-21T06:17:40.919Z,44.30
2018-10-21T06:18:16.392Z,38.10
2018-10-21T06:18:51.821Z,42.80
2018-10-21T06:19:27.143Z,48.40
2018-10-21T06:20:02.771Z,48.50
2018-10-21T06:20:37.943Z,43.90
2018-10-21T06:21:13.686Z,46.50
2018-10-21T06:21:49.410Z,48.00
2018-10-21T06:22:24.803Z,45.60
2018-10-21T06:23:00.039Z,44.30
2018-10-21T06:23:35.550Z,37.90
2018-10-21T06:24:10.846Z,44.90
2018-10-21T06:24:46.206Z,46.20
2018-10-21T06:25:21.575Z,43.10
2018-10-21T06:25:57.232Z,40.90
2018-10-21T06:26:32.487Z,44.20
2018-10-21T06:27:08.112Z,42.00
2018-10-21T06:27:43.693Z,41.00
2018-10-21T06:28:19.422Z,43.10
2018-10-21T06:28:54.806Z,44.10
2018-10-21T06:29:30.572Z,46.20
2018-10-21T06:30:06.006Z,40.10
2018-10-21T06:30:41.431Z,44.20
2018-10-21T06:31:16.639Z,41.00
2018-10-21T06:31:52.232Z,43.60
2018-10-21T06:32:27.875Z,44.50
2018-10-21T06:33:03.244Z,46.50
2018-10-21T06:33:38.591Z,48.10
2018-10-21T06:34:13.917Z,53.70
2018-10-21T06:34:49.564Z,45.30
2018-10-21T06:35:24.967Z,41.30
2018-10-21T06:36:00.181Z,45.30
2018-10-21T06:36:35.718Z,47.10
2018-10-21T06:37:11.011Z,51.60
2018-10-21T06:37:46.578Z,50.90
2018-10-21T06:38:21.941Z,44.90
2018-10-21T06:38:57.507Z,44.10
2018-10-21T06:39:32.657Z,49.30
2018-10-21T06:40:07.966Z,47.20
2018-10-21T06:40:43.412Z,50.00
2018-10-21T06:41:18.965Z,45.60
2018-10-21T06:41:54.653Z,41.50
2018-10-21T06:42:30.064Z,47.10
2018-10-21T06:43:05.476Z,47.30
2018-10-21T06:43:40.506Z,42.70
2018-10-21T06:44:16.074Z,42.30
2018-10-21T06:44:51.706Z,46.60
2018-10-21T06:45:27.427Z,41.80
2018-10-21T06:46:02.580Z,40.30
2018-10-21T06:46:38.134Z,40.10
2018-10-21T06:47:13.466Z,36.00
2018-10-21T06:47:48.783Z,40.70
2018-10-21T06:48:24.343Z,38.50
2018-10-21T06:48:59.745Z,38.70
2018-10-21T06:49:35.109Z,39.00
2018-10-21T06:50:10.540Z,35.00
2018-10-21T06:50:45.792Z,34.70
2018-10-21T06:51:21.137Z,37.00
2018-10-21T06:51:56.809Z,38.80
2018-10-21T06:52:32.074Z,43.60
2018-10-21T06:53:07.703Z,41.30
2018-10-21T06:53:43.111Z,38.40
2018-10-21T06:54:18.656Z,38.80
2018-10-21T06:54:53.868Z,35.50
2018-10-21T06:55:29.232Z,37.90
2018-10-21T06:56:04.379Z,38.90
2018-10-21T06:56:39.901Z,42.30
2018-10-21T06:57:14.782Z,42.50
2018-10-21T06:57:50.449Z,40.60
2018-10-21T06:58:25.737Z,37.30
2018-10-21T06:59:00.774Z,35.30
2018-10-21T06:59:36.144Z,34.80
2018-10-21T07:00:11.640Z,35.90
2018-10-21T07:00:46.802Z,35.30
2018-10-21T07:01:22.304Z,37.10
2018-10-21T07:01:57.787Z,36.60
2018-10-21T07:02:33.183Z,38.60
2018-10-21T07:03:08.989Z,40.00
2018-10-21T07:03:44.437Z,36.10
2018-10-21T07:04:19.885Z,32.70
2018-10-21T07:04:55.295Z,34.00
2018-10-21T07:05:30.488Z,38.60
2018-10-21T07:06:05.777Z,33.10
2018-10-21T07:06:41.105Z,32.20
2018-10-21T07:07:16.454Z,35.40
2018-10-21T07:07:51.908Z,33.20
2018-10-21T07:08:27.263Z,32.60
2018-10-21T07:09:02.582Z,34.10
2018-10-21T07:09:37.968Z,33.30
2018-10-21T07:10:13.374Z,33.10
2018-10-21T07:10:48.829Z,30.40
2018-10-21T07:11:24.211Z,33.00
2018-10-21T07:11:59.456Z,29.50
2018-10-21T07:12:34.759Z,28.30
2018-10-21T07:13:10.300Z,29.10
2018-10-21T07:13:45.515Z,32.60
2018-10-21T07:14:21.007Z,29.30
2018-10-21T07:14:56.855Z,31.20
2018-10-21T07:21:17.458Z,32.00
2018-10-21T07:21:52.780Z,30.30
2018-10-21T07:22:28.148Z,31.20
2018-10-21T07:23:03.640Z,28.50
2018-10-21T07:23:38.812Z,25.80
2018-10-21T07:24:14.435Z,27.70
2018-10-21T07:24:49.709Z,29.10
2018-10-21T07:25:25.060Z,28.60
2018-10-21T07:26:00.471Z,30.70
2018-10-21T07:26:35.533Z,28.00
2018-10-21T07:27:10.827Z,29.30
2018-10-21T07:27:46.151Z,28.00
2018-10-21T07:28:21.613Z,29.40
2018-10-21T07:28:57.045Z,31.60
2018-10-21T07:29:32.248Z,30.80
2018-10-21T07:30:07.523Z,33.30
2018-10-21T07:30:43.023Z,34.00
2018-10-21T07:31:18.246Z,30.00
2018-10-21T07:31:53.560Z,29.90
2018-10-21T07:32:28.890Z,27.40
2018-10-21T07:33:04.020Z,31.30
2018-10-21T07:33:39.445Z,35.50
2018-10-21T07:34:14.718Z,36.70
2018-10-21T07:34:50.276Z,32.60
2018-10-21T07:35:25.465Z,32.90
2018-10-21T07:36:00.999Z,31.00
2018-10-21T07:36:36.145Z,30.70
2018-10-21T07:37:11.585Z,30.70
2018-10-21T07:37:47.192Z,30.20
2018-10-21T07:38:22.609Z,26.90
2018-10-21T07:38:58.001Z,28.50
2018-10-21T07:39:33.438Z,27.50
2018-10-21T07:40:08.812Z,25.40
2018-10-21T07:40:44.761Z,26.10
2018-10-21T07:41:20.173Z,29.20
2018-10-21T07:41:55.494Z,31.70